sensor_id;sensor_type;location;lat;lon;timestamp;temperature;humidity
25436;DHT22;13363;52.772;-3.890;2023-02-24T00:01:19;4.80;99.90
25436;DHT22;13363;52.772;-3.890;2023-02-24T00:03:52;4.80;99.90
25436;DHT22;13363;52.772;-3.890;2023-02-24T00:06:18;4.80;99.90
25436;DHT22;13363;52.772;-3.890;2023-02-24T00:08:44;4.80;99.90
25436;DHT22;13363;52.772;-3.890;2023-02-24T00:11:11;4.90;99.90
25436;DHT22;13363;52.772;-3.890;2023-02-24T00:13:39;5.00;99.90
25436;DHT22;13363;52.772;-3.890;2023-02-24T00:16:06;4.90;99.90
25436;DHT22;13363;52.772;-3.890;2023-02-24T00:18:33;4.90;99.90
25436;DHT22;13363;52.772;-3.890;2023-02-24T00:21:06;4.90;99.90
25436;DHT22;13363;52.772;-3.890;2023-02-24T00:23:34;5.00;99.90
25436;DHT22;13363;52.772;-3.890;2023-02-24T00:26:04;5.00;99.90
25436;DHT22;13363;52.772;-3.890;2023-02-24T00:28:32;5.10;99.90
25436;DHT22;13363;52.772;-3.890;2023-02-24T00:31:12;5.10;99.90
25436;DHT22;13363;52.772;-3.890;2023-02-24T00:33:43;5.10;99.90
25436;DHT22;13363;52.772;-3.890;2023-02-24T00:36:14;5.10;99.90
25436;DHT22;13363;52.772;-3.890;2023-02-24T00:38:41;5.10;99.90
25436;DHT22;13363;52.772;-3.890;2023-02-24T00:41:16;5.10;99.90
25436;DHT22;13363;52.772;-3.890;2023-02-24T00:43:43;5.10;99.90
25436;DHT22;13363;52.772;-3.890;2023-02-24T00:46:18;5.20;99.90
25436;DHT22;13363;52.772;-3.890;2023-02-24T00:48:46;5.40;99.90
25436;DHT22;13363;52.772;-3.890;2023-02-24T00:51:17;5.30;99.90
25436;DHT22;13363;52.772;-3.890;2023-02-24T00:53:49;5.30;99.90
25436;DHT22;13363;52.772;-3.890;2023-02-24T00:56:16;5.40;99.90
25436;DHT22;13363;52.772;-3.890;2023-02-24T00:58:43;5.40;99.90
25436;DHT22;13363;52.772;-3.890;2023-02-24T01:01:20;5.20;99.90
25436;DHT22;13363;52.772;-3.890;2023-02-24T01:03:48;5.10;99.90
25436;DHT22;13363;52.772;-3.890;2023-02-24T01:06:19;5.10;99.90
25436;DHT22;13363;52.772;-3.890;2023-02-24T01:08:49;5.00;99.90
25436;DHT22;13363;52.772;-3.890;2023-02-24T01:11:17;5.10;99.90
25436;DHT22;13363;52.772;-3.890;2023-02-24T01:14:13;5.10;99.90
25436;DHT22;13363;52.772;-3.890;2023-02-24T01:16:40;5.20;99.90
25436;DHT22;13363;52.772;-3.890;2023-02-24T01:19:07;5.20;99.90
25436;DHT22;13363;52.772;-3.890;2023-02-24T01:21:34;5.10;99.90
25436;DHT22;13363;52.772;-3.890;2023-02-24T01:24:00;5.10;99.90
25436;DHT22;13363;52.772;-3.890;2023-02-24T01:26:26;5.10;99.90
25436;DHT22;13363;52.772;-3.890;2023-02-24T01:28:55;5.00;99.90
25436;DHT22;13363;52.772;-3.890;2023-02-24T01:31:21;5.00;99.90
25436;DHT22;13363;52.772;-3.890;2023-02-24T01:33:48;5.10;99.90
25436;DHT22;13363;52.772;-3.890;2023-02-24T01:36:23;5.30;99.90
25436;DHT22;13363;52.772;-3.890;2023-02-24T01:38:52;5.20;99.90
25436;DHT22;13363;52.772;-3.890;2023-02-24T01:41:21;5.30;99.90
25436;DHT22;13363;52.772;-3.890;2023-02-24T01:44:04;5.30;99.90
25436;DHT22;13363;52.772;-3.890;2023-02-24T01:46:41;5.30;99.90
25436;DHT22;13363;52.772;-3.890;2023-02-24T01:49:31;5.30;99.90
25436;DHT22;13363;52.772;-3.890;2023-02-24T01:52:11;5.40;99.90
25436;DHT22;13363;52.772;-3.890;2023-02-24T01:54:43;5.50;99.90
25436;DHT22;13363;52.772;-3.890;2023-02-24T01:57:12;5.40;99.90
25436;DHT22;13363;52.772;-3.890;2023-02-24T01:59:43;5.50;99.90
25436;DHT22;13363;52.772;-3.890;2023-02-24T02:02:10;5.50;99.90
25436;DHT22;13363;52.772;-3.890;2023-02-24T02:04:49;5.40;99.90
25436;DHT22;13363;52.772;-3.890;2023-02-24T02:07:18;5.40;99.90
25436;DHT22;13363;52.772;-3.890;2023-02-24T02:09:47;5.40;99.90
25436;DHT22;13363;52.772;-3.890;2023-02-24T02:12:13;5.40;99.90
25436;DHT22;13363;52.772;-3.890;2023-02-24T02:14:43;5.40;99.90
25436;DHT22;13363;52.772;-3.890;2023-02-24T02:25:19;5.50;99.90
25436;DHT22;13363;52.772;-3.890;2023-02-24T02:30:55;5.40;99.90
25436;DHT22;13363;52.772;-3.890;2023-02-24T02:36:50;5.50;99.90
25436;DHT22;13363;52.772;-3.890;2023-02-24T02:42:19;5.60;99.90
25436;DHT22;13363;52.772;-3.890;2023-02-24T02:45:16;5.60;99.90
25436;DHT22;13363;52.772;-3.890;2023-02-24T02:47:49;5.70;99.90
25436;DHT22;13363;52.772;-3.890;2023-02-24T02:50:30;5.60;99.90
25436;DHT22;13363;52.772;-3.890;2023-02-24T02:53:01;5.50;99.90
25436;DHT22;13363;52.772;-3.890;2023-02-24T02:55:58;5.50;99.90
25436;DHT22;13363;52.772;-3.890;2023-02-24T02:58:29;5.50;99.90
25436;DHT22;13363;52.772;-3.890;2023-02-24T03:01:00;5.50;99.90
25436;DHT22;13363;52.772;-3.890;2023-02-24T03:03:42;5.50;99.90
25436;DHT22;13363;52.772;-3.890;2023-02-24T03:06:13;5.50;99.90
25436;DHT22;13363;52.772;-3.890;2023-02-24T03:08:47;5.50;99.90
25436;DHT22;13363;52.772;-3.890;2023-02-24T03:11:15;5.70;99.90
25436;DHT22;13363;52.772;-3.890;2023-02-24T03:13:44;5.70;99.90
25436;DHT22;13363;52.772;-3.890;2023-02-24T03:16:11;5.70;99.90
25436;DHT22;13363;52.772;-3.890;2023-02-24T03:18:46;5.70;99.90
25436;DHT22;13363;52.772;-3.890;2023-02-24T03:21:34;5.70;99.90
25436;DHT22;13363;52.772;-3.890;2023-02-24T03:24:03;5.70;99.90
25436;DHT22;13363;52.772;-3.890;2023-02-24T03:26:41;5.70;99.90
25436;DHT22;13363;52.772;-3.890;2023-02-24T03:29:16;5.90;99.90
25436;DHT22;13363;52.772;-3.890;2023-02-24T03:31:50;5.80;99.90
25436;DHT22;13363;52.772;-3.890;2023-02-24T03:34:50;5.80;99.90
25436;DHT22;13363;52.772;-3.890;2023-02-24T03:37:12;5.80;99.90
25436;DHT22;13363;52.772;-3.890;2023-02-24T03:39:38;6.00;99.90
25436;DHT22;13363;52.772;-3.890;2023-02-24T03:42:13;6.00;99.90
25436;DHT22;13363;52.772;-3.890;2023-02-24T03:44:40;5.90;99.90
25436;DHT22;13363;52.772;-3.890;2023-02-24T03:47:06;5.90;99.90
25436;DHT22;13363;52.772;-3.890;2023-02-24T03:49:34;5.80;99.90
25436;DHT22;13363;52.772;-3.890;2023-02-24T03:52:19;5.80;99.90
25436;DHT22;13363;52.772;-3.890;2023-02-24T04:00:26;5.70;99.90
25436;DHT22;13363;52.772;-3.890;2023-02-24T04:06:10;5.70;99.90
25436;DHT22;13363;52.772;-3.890;2023-02-24T04:12:37;5.70;99.90
25436;DHT22;13363;52.772;-3.890;2023-02-24T04:15:19;5.80;99.90
25436;DHT22;13363;52.772;-3.890;2023-02-24T04:18:02;5.80;99.90
25436;DHT22;13363;52.772;-3.890;2023-02-24T04:20:31;5.80;99.90
25436;DHT22;13363;52.772;-3.890;2023-02-24T04:23:09;5.70;99.90
25436;DHT22;13363;52.772;-3.890;2023-02-24T04:25:37;5.70;99.90
25436;DHT22;13363;52.772;-3.890;2023-02-24T04:28:04;5.80;99.90
25436;DHT22;13363;52.772;-3.890;2023-02-24T04:30:37;5.80;99.90
25436;DHT22;13363;52.772;-3.890;2023-02-24T04:33:04;5.80;99.90
25436;DHT22;13363;52.772;-3.890;2023-02-24T04:35:30;5.80;99.90
25436;DHT22;13363;52.772;-3.890;2023-02-24T04:37:57;5.90;99.90
25436;DHT22;13363;52.772;-3.890;2023-02-24T04:40:23;5.80;99.90
25436;DHT22;13363;52.772;-3.890;2023-02-24T04:42:51;5.90;99.90
25436;DHT22;13363;52.772;-3.890;2023-02-24T04:45:35;5.80;99.90
25436;DHT22;13363;52.772;-3.890;2023-02-24T04:48:04;5.80;99.90
25436;DHT22;13363;52.772;-3.890;2023-02-24T04:50:38;5.80;99.90
25436;DHT22;13363;52.772;-3.890;2023-02-24T04:53:07;5.80;99.90
25436;DHT22;13363;52.772;-3.890;2023-02-24T04:55:45;6.00;99.90
25436;DHT22;13363;52.772;-3.890;2023-02-24T04:58:19;5.90;99.90
25436;DHT22;13363;52.772;-3.890;2023-02-24T05:00:50;5.90;99.90
25436;DHT22;13363;52.772;-3.890;2023-02-24T05:03:21;6.10;99.90
25436;DHT22;13363;52.772;-3.890;2023-02-24T05:05:49;6.20;99.90
25436;DHT22;13363;52.772;-3.890;2023-02-24T05:08:17;6.20;99.90
25436;DHT22;13363;52.772;-3.890;2023-02-24T05:10:44;6.10;99.90
25436;DHT22;13363;52.772;-3.890;2023-02-24T05:13:17;6.00;99.90
25436;DHT22;13363;52.772;-3.890;2023-02-24T05:15:44;5.90;99.90
25436;DHT22;13363;52.772;-3.890;2023-02-24T05:18:12;5.90;99.90
25436;DHT22;13363;52.772;-3.890;2023-02-24T05:20:52;6.00;99.90
25436;DHT22;13363;52.772;-3.890;2023-02-24T05:23:39;6.20;99.90
25436;DHT22;13363;52.772;-3.890;2023-02-24T05:26:11;6.10;99.90
25436;DHT22;13363;52.772;-3.890;2023-02-24T05:28:41;6.10;99.90
25436;DHT22;13363;52.772;-3.890;2023-02-24T05:31:09;6.00;99.90
25436;DHT22;13363;52.772;-3.890;2023-02-24T05:33:36;6.00;99.90
25436;DHT22;13363;52.772;-3.890;2023-02-24T05:36:04;6.00;99.90
25436;DHT22;13363;52.772;-3.890;2023-02-24T05:38:31;6.10;99.90
25436;DHT22;13363;52.772;-3.890;2023-02-24T05:41:13;6.10;99.90
25436;DHT22;13363;52.772;-3.890;2023-02-24T05:43:47;6.10;99.90
25436;DHT22;13363;52.772;-3.890;2023-02-24T05:46:22;6.00;99.90
25436;DHT22;13363;52.772;-3.890;2023-02-24T05:48:57;6.10;99.90
25436;DHT22;13363;52.772;-3.890;2023-02-24T05:51:23;6.00;99.90
25436;DHT22;13363;52.772;-3.890;2023-02-24T05:53:53;6.00;99.90
25436;DHT22;13363;52.772;-3.890;2023-02-24T05:56:23;6.20;99.90
25436;DHT22;13363;52.772;-3.890;2023-02-24T05:58:49;6.10;99.90
25436;DHT22;13363;52.772;-3.890;2023-02-24T06:01:31;6.10;99.90
25436;DHT22;13363;52.772;-3.890;2023-02-24T06:04:03;6.20;99.90
25436;DHT22;13363;52.772;-3.890;2023-02-24T06:06:34;6.30;99.90
25436;DHT22;13363;52.772;-3.890;2023-02-24T06:09:02;6.30;99.90
25436;DHT22;13363;52.772;-3.890;2023-02-24T06:11:32;6.30;99.90
25436;DHT22;13363;52.772;-3.890;2023-02-24T06:13:58;6.20;99.90
25436;DHT22;13363;52.772;-3.890;2023-02-24T06:16:24;6.10;99.90
25436;DHT22;13363;52.772;-3.890;2023-02-24T06:18:54;6.10;99.90
25436;DHT22;13363;52.772;-3.890;2023-02-24T06:21:22;6.00;99.90
25436;DHT22;13363;52.772;-3.890;2023-02-24T06:23:49;6.10;99.90
25436;DHT22;13363;52.772;-3.890;2023-02-24T06:26:15;6.00;99.90
25436;DHT22;13363;52.772;-3.890;2023-02-24T06:28:44;6.10;99.90
25436;DHT22;13363;52.772;-3.890;2023-02-24T06:31:11;6.10;99.90
25436;DHT22;13363;52.772;-3.890;2023-02-24T06:33:39;6.10;99.90
25436;DHT22;13363;52.772;-3.890;2023-02-24T06:36:06;6.10;99.90
25436;DHT22;13363;52.772;-3.890;2023-02-24T06:38:34;6.10;99.90
25436;DHT22;13363;52.772;-3.890;2023-02-24T06:41:01;6.10;99.90
25436;DHT22;13363;52.772;-3.890;2023-02-24T06:43:31;6.20;99.90
25436;DHT22;13363;52.772;-3.890;2023-02-24T06:46:00;6.20;99.90
25436;DHT22;13363;52.772;-3.890;2023-02-24T06:48:26;6.20;99.90
25436;DHT22;13363;52.772;-3.890;2023-02-24T06:50:53;6.30;99.90
25436;DHT22;13363;52.772;-3.890;2023-02-24T06:53:19;6.20;99.90
25436;DHT22;13363;52.772;-3.890;2023-02-24T06:55:46;6.10;99.90
25436;DHT22;13363;52.772;-3.890;2023-02-24T06:58:18;6.20;99.90
25436;DHT22;13363;52.772;-3.890;2023-02-24T07:00:45;6.10;99.90
25436;DHT22;13363;52.772;-3.890;2023-02-24T07:03:23;6.00;99.90
25436;DHT22;13363;52.772;-3.890;2023-02-24T07:05:52;6.10;99.90
25436;DHT22;13363;52.772;-3.890;2023-02-24T07:08:23;6.10;99.90
25436;DHT22;13363;52.772;-3.890;2023-02-24T07:10:56;6.10;99.90
25436;DHT22;13363;52.772;-3.890;2023-02-24T07:13:24;6.10;99.90
25436;DHT22;13363;52.772;-3.890;2023-02-24T07:15:52;6.10;99.90
25436;DHT22;13363;52.772;-3.890;2023-02-24T07:18:19;6.20;99.90
25436;DHT22;13363;52.772;-3.890;2023-02-24T07:20:45;6.20;99.90
25436;DHT22;13363;52.772;-3.890;2023-02-24T07:23:15;6.20;99.90
25436;DHT22;13363;52.772;-3.890;2023-02-24T07:25:42;6.20;99.90
25436;DHT22;13363;52.772;-3.890;2023-02-24T07:28:11;6.10;99.90
25436;DHT22;13363;52.772;-3.890;2023-02-24T07:30:39;6.10;99.90
25436;DHT22;13363;52.772;-3.890;2023-02-24T07:33:06;6.20;99.90
25436;DHT22;13363;52.772;-3.890;2023-02-24T07:35:33;6.10;99.90
25436;DHT22;13363;52.772;-3.890;2023-02-24T07:38:01;6.10;99.90
25436;DHT22;13363;52.772;-3.890;2023-02-24T07:40:31;6.10;99.90
25436;DHT22;13363;52.772;-3.890;2023-02-24T07:42:59;6.10;99.90
25436;DHT22;13363;52.772;-3.890;2023-02-24T07:45:25;6.10;99.90
25436;DHT22;13363;52.772;-3.890;2023-02-24T07:47:51;6.20;99.90
25436;DHT22;13363;52.772;-3.890;2023-02-24T07:50:16;6.20;99.90
25436;DHT22;13363;52.772;-3.890;2023-02-24T07:52:46;6.20;99.90
25436;DHT22;13363;52.772;-3.890;2023-02-24T07:55:13;6.20;99.90
25436;DHT22;13363;52.772;-3.890;2023-02-24T07:57:41;6.40;99.90
25436;DHT22;13363;52.772;-3.890;2023-02-24T08:00:13;6.50;99.90
25436;DHT22;13363;52.772;-3.890;2023-02-24T08:02:46;6.50;99.90
25436;DHT22;13363;52.772;-3.890;2023-02-24T08:05:14;6.50;99.90
25436;DHT22;13363;52.772;-3.890;2023-02-24T08:07:45;6.60;99.90
25436;DHT22;13363;52.772;-3.890;2023-02-24T08:10:17;6.60;99.90
25436;DHT22;13363;52.772;-3.890;2023-02-24T08:12:50;6.60;99.90
25436;DHT22;13363;52.772;-3.890;2023-02-24T08:15:24;6.60;99.90
25436;DHT22;13363;52.772;-3.890;2023-02-24T08:17:56;6.60;99.90
25436;DHT22;13363;52.772;-3.890;2023-02-24T08:20:31;6.60;99.90
25436;DHT22;13363;52.772;-3.890;2023-02-24T08:23:17;6.70;99.90
25436;DHT22;13363;52.772;-3.890;2023-02-24T08:25:44;6.80;99.90
25436;DHT22;13363;52.772;-3.890;2023-02-24T08:28:10;6.80;99.90
25436;DHT22;13363;52.772;-3.890;2023-02-24T08:30:41;6.90;99.90
25436;DHT22;13363;52.772;-3.890;2023-02-24T08:33:13;6.70;99.90
25436;DHT22;13363;52.772;-3.890;2023-02-24T08:35:42;6.90;99.90
25436;DHT22;13363;52.772;-3.890;2023-02-24T08:38:16;6.80;99.90
25436;DHT22;13363;52.772;-3.890;2023-02-24T08:40:46;6.90;99.90
25436;DHT22;13363;52.772;-3.890;2023-02-24T08:43:25;7.00;99.90
25436;DHT22;13363;52.772;-3.890;2023-02-24T08:46:12;7.00;99.90
25436;DHT22;13363;52.772;-3.890;2023-02-24T08:48:55;6.90;99.90
25436;DHT22;13363;52.772;-3.890;2023-02-24T08:51:33;6.90;99.90
25436;DHT22;13363;52.772;-3.890;2023-02-24T08:54:04;7.00;99.90
25436;DHT22;13363;52.772;-3.890;2023-02-24T08:56:36;7.00;99.90
25436;DHT22;13363;52.772;-3.890;2023-02-24T08:59:09;7.10;99.90
25436;DHT22;13363;52.772;-3.890;2023-02-24T09:01:57;7.10;99.90
25436;DHT22;13363;52.772;-3.890;2023-02-24T09:04:48;7.10;99.90
25436;DHT22;13363;52.772;-3.890;2023-02-24T09:07:21;7.10;99.90
25436;DHT22;13363;52.772;-3.890;2023-02-24T09:09:47;7.20;99.90
25436;DHT22;13363;52.772;-3.890;2023-02-24T09:12:14;7.30;99.90
25436;DHT22;13363;52.772;-3.890;2023-02-24T09:14:48;7.30;99.90
25436;DHT22;13363;52.772;-3.890;2023-02-24T09:17:15;7.40;99.90
25436;DHT22;13363;52.772;-3.890;2023-02-24T09:19:49;7.70;99.90
25436;DHT22;13363;52.772;-3.890;2023-02-24T09:22:18;7.90;99.90
25436;DHT22;13363;52.772;-3.890;2023-02-24T09:25:03;8.10;99.90
25436;DHT22;13363;52.772;-3.890;2023-02-24T09:28:07;8.30;99.90
25436;DHT22;13363;52.772;-3.890;2023-02-24T09:30:39;8.60;99.90
25436;DHT22;13363;52.772;-3.890;2023-02-24T09:33:24;8.60;99.90
25436;DHT22;13363;52.772;-3.890;2023-02-24T09:35:57;8.50;99.90
25436;DHT22;13363;52.772;-3.890;2023-02-24T09:38:45;8.50;99.90
25436;DHT22;13363;52.772;-3.890;2023-02-24T09:44:15;8.40;99.90
25436;DHT22;13363;52.772;-3.890;2023-02-24T09:46:56;8.40;99.90
25436;DHT22;13363;52.772;-3.890;2023-02-24T09:49:49;8.50;99.90
25436;DHT22;13363;52.772;-3.890;2023-02-24T09:52:22;8.40;99.90
25436;DHT22;13363;52.772;-3.890;2023-02-24T09:58:05;8.40;99.90
25436;DHT22;13363;52.772;-3.890;2023-02-24T10:00:59;8.40;99.90
25436;DHT22;13363;52.772;-3.890;2023-02-24T10:06:40;8.20;99.90
25436;DHT22;13363;52.772;-3.890;2023-02-24T10:12:01;8.50;99.90
25436;DHT22;13363;52.772;-3.890;2023-02-24T10:17:16;8.50;99.90
25436;DHT22;13363;52.772;-3.890;2023-02-24T10:19:58;8.70;99.90
25436;DHT22;13363;52.772;-3.890;2023-02-24T10:22:47;9.10;99.90
25436;DHT22;13363;52.772;-3.890;2023-02-24T10:25:44;9.40;99.90
25436;DHT22;13363;52.772;-3.890;2023-02-24T10:28:35;9.70;99.90
25436;DHT22;13363;52.772;-3.890;2023-02-24T10:31:10;9.80;99.90
25436;DHT22;13363;52.772;-3.890;2023-02-24T10:33:54;9.90;99.90
25436;DHT22;13363;52.772;-3.890;2023-02-24T10:36:22;10.00;99.90
25436;DHT22;13363;52.772;-3.890;2023-02-24T10:39:15;10.00;99.90
25436;DHT22;13363;52.772;-3.890;2023-02-24T10:41:48;10.00;99.90
25436;DHT22;13363;52.772;-3.890;2023-02-24T10:44:22;10.00;99.90
25436;DHT22;13363;52.772;-3.890;2023-02-24T10:46:59;9.90;99.90
25436;DHT22;13363;52.772;-3.890;2023-02-24T10:49:44;9.90;99.90
25436;DHT22;13363;52.772;-3.890;2023-02-24T10:52:39;9.90;99.90
25436;DHT22;13363;52.772;-3.890;2023-02-24T10:55:38;10.20;99.90
25436;DHT22;13363;52.772;-3.890;2023-02-24T10:58:26;10.30;99.90
25436;DHT22;13363;52.772;-3.890;2023-02-24T11:01:03;10.60;99.90
25436;DHT22;13363;52.772;-3.890;2023-02-24T11:03:39;10.80;99.90
25436;DHT22;13363;52.772;-3.890;2023-02-24T11:06:21;11.00;99.90
25436;DHT22;13363;52.772;-3.890;2023-02-24T11:09:18;11.00;99.90
25436;DHT22;13363;52.772;-3.890;2023-02-24T11:11:45;11.00;99.90
25436;DHT22;13363;52.772;-3.890;2023-02-24T11:14:31;10.80;99.90
25436;DHT22;13363;52.772;-3.890;2023-02-24T11:17:22;10.70;99.90
25436;DHT22;13363;52.772;-3.890;2023-02-24T11:22:54;10.70;99.90
25436;DHT22;13363;52.772;-3.890;2023-02-24T11:25:37;10.90;99.90
25436;DHT22;13363;52.772;-3.890;2023-02-24T11:41:57;12.00;99.90
25436;DHT22;13363;52.772;-3.890;2023-02-24T11:44:35;11.90;99.90
25436;DHT22;13363;52.772;-3.890;2023-02-24T11:47:07;12.00;99.90
25436;DHT22;13363;52.772;-3.890;2023-02-24T11:49:40;12.20;99.90
25436;DHT22;13363;52.772;-3.890;2023-02-24T11:52:12;12.30;99.90
25436;DHT22;13363;52.772;-3.890;2023-02-24T11:54:51;12.50;99.90
25436;DHT22;13363;52.772;-3.890;2023-02-24T11:57:40;13.10;99.90
25436;DHT22;13363;52.772;-3.890;2023-02-24T12:00:16;13.80;99.90
25436;DHT22;13363;52.772;-3.890;2023-02-24T12:02:52;14.20;99.90
25436;DHT22;13363;52.772;-3.890;2023-02-24T12:05:26;14.40;99.90
25436;DHT22;13363;52.772;-3.890;2023-02-24T12:07:53;14.60;99.90
25436;DHT22;13363;52.772;-3.890;2023-02-24T12:10:35;14.60;99.90
25436;DHT22;13363;52.772;-3.890;2023-02-24T12:13:38;14.30;99.90
25436;DHT22;13363;52.772;-3.890;2023-02-24T12:16:31;14.30;99.90
25436;DHT22;13363;52.772;-3.890;2023-02-24T12:19:14;14.50;99.90
25436;DHT22;13363;52.772;-3.890;2023-02-24T12:21:55;14.30;99.90
25436;DHT22;13363;52.772;-3.890;2023-02-24T12:24:23;14.10;99.90
25436;DHT22;13363;52.772;-3.890;2023-02-24T12:35:14;13.40;99.90
25436;DHT22;13363;52.772;-3.890;2023-02-24T12:40:30;13.40;99.90
25436;DHT22;13363;52.772;-3.890;2023-02-24T12:43:16;13.60;99.90
25436;DHT22;13363;52.772;-3.890;2023-02-24T12:46:05;13.80;99.90
25436;DHT22;13363;52.772;-3.890;2023-02-24T12:48:41;13.90;99.90
25436;DHT22;13363;52.772;-3.890;2023-02-24T12:59:39;13.90;99.90
25436;DHT22;13363;52.772;-3.890;2023-02-24T13:10:29;13.30;99.90
25436;DHT22;13363;52.772;-3.890;2023-02-24T13:13:41;13.10;99.90
25436;DHT22;13363;52.772;-3.890;2023-02-24T13:16:05;13.00;99.90
25436;DHT22;13363;52.772;-3.890;2023-02-24T13:18:33;12.80;99.90
25436;DHT22;13363;52.772;-3.890;2023-02-24T13:21:20;12.80;99.90
25436;DHT22;13363;52.772;-3.890;2023-02-24T13:24:19;12.80;99.90
25436;DHT22;13363;52.772;-3.890;2023-02-24T13:26:45;12.70;99.90
25436;DHT22;13363;52.772;-3.890;2023-02-24T13:29:13;12.80;99.90
25436;DHT22;13363;52.772;-3.890;2023-02-24T13:31:47;12.90;99.90
25436;DHT22;13363;52.772;-3.890;2023-02-24T13:39:55;13.00;99.90
25436;DHT22;13363;52.772;-3.890;2023-02-24T13:42:25;13.00;99.90
25436;DHT22;13363;52.772;-3.890;2023-02-24T14:01:12;13.10;99.90
25436;DHT22;13363;52.772;-3.890;2023-02-24T14:03:41;13.00;99.90
25436;DHT22;13363;52.772;-3.890;2023-02-24T14:06:21;12.80;99.90
25436;DHT22;13363;52.772;-3.890;2023-02-24T14:09:25;12.70;99.90
25436;DHT22;13363;52.772;-3.890;2023-02-24T14:11:58;12.50;99.90
25436;DHT22;13363;52.772;-3.890;2023-02-24T14:14:26;12.30;99.90
25436;DHT22;13363;52.772;-3.890;2023-02-24T14:16:56;12.20;99.90
25436;DHT22;13363;52.772;-3.890;2023-02-24T14:19:26;12.10;99.90
25436;DHT22;13363;52.772;-3.890;2023-02-24T14:21:56;12.00;99.90
25436;DHT22;13363;52.772;-3.890;2023-02-24T14:24:26;12.00;99.90
25436;DHT22;13363;52.772;-3.890;2023-02-24T14:26:57;12.00;99.90
25436;DHT22;13363;52.772;-3.890;2023-02-24T14:29:34;12.10;99.90
25436;DHT22;13363;52.772;-3.890;2023-02-24T14:32:00;12.10;99.90
25436;DHT22;13363;52.772;-3.890;2023-02-24T14:34:28;12.10;99.90
25436;DHT22;13363;52.772;-3.890;2023-02-24T14:37:00;12.00;99.90
25436;DHT22;13363;52.772;-3.890;2023-02-24T14:39:29;12.00;99.90
25436;DHT22;13363;52.772;-3.890;2023-02-24T14:42:22;12.10;99.90
25436;DHT22;13363;52.772;-3.890;2023-02-24T14:44:56;12.20;99.90
25436;DHT22;13363;52.772;-3.890;2023-02-24T14:47:27;12.20;99.90
25436;DHT22;13363;52.772;-3.890;2023-02-24T14:50:02;12.40;99.90
25436;DHT22;13363;52.772;-3.890;2023-02-24T14:52:40;12.70;99.90
25436;DHT22;13363;52.772;-3.890;2023-02-24T14:55:21;12.90;99.90
25436;DHT22;13363;52.772;-3.890;2023-02-24T14:58:00;13.00;99.90
25436;DHT22;13363;52.772;-3.890;2023-02-24T15:00:52;13.00;99.90
25436;DHT22;13363;52.772;-3.890;2023-02-24T15:05:52;12.90;99.90
25436;DHT22;13363;52.772;-3.890;2023-02-24T15:08:30;12.80;99.90
25436;DHT22;13363;52.772;-3.890;2023-02-24T15:10:59;12.70;99.90
25436;DHT22;13363;52.772;-3.890;2023-02-24T15:16:08;12.60;99.90
25436;DHT22;13363;52.772;-3.890;2023-02-24T15:18:37;12.60;99.90
25436;DHT22;13363;52.772;-3.890;2023-02-24T15:21:05;12.50;99.90
25436;DHT22;13363;52.772;-3.890;2023-02-24T15:23:36;12.50;99.90
25436;DHT22;13363;52.772;-3.890;2023-02-24T15:26:05;12.60;99.90
25436;DHT22;13363;52.772;-3.890;2023-02-24T15:28:36;12.60;99.90
25436;DHT22;13363;52.772;-3.890;2023-02-24T15:31:17;12.70;99.90
25436;DHT22;13363;52.772;-3.890;2023-02-24T15:33:56;12.70;99.90
25436;DHT22;13363;52.772;-3.890;2023-02-24T15:36:25;12.60;99.90
25436;DHT22;13363;52.772;-3.890;2023-02-24T15:38:55;12.40;99.90
25436;DHT22;13363;52.772;-3.890;2023-02-24T15:41:22;12.30;99.90
25436;DHT22;13363;52.772;-3.890;2023-02-24T15:43:49;12.30;99.90
25436;DHT22;13363;52.772;-3.890;2023-02-24T15:46:28;12.30;99.90
25436;DHT22;13363;52.772;-3.890;2023-02-24T15:48:54;12.30;99.90
25436;DHT22;13363;52.772;-3.890;2023-02-24T15:51:36;12.30;99.90
25436;DHT22;13363;52.772;-3.890;2023-02-24T15:54:10;12.30;99.90
25436;DHT22;13363;52.772;-3.890;2023-02-24T15:56:37;12.40;99.90
25436;DHT22;13363;52.772;-3.890;2023-02-24T15:59:03;12.30;99.90
25436;DHT22;13363;52.772;-3.890;2023-02-24T16:01:31;12.20;99.90
25436;DHT22;13363;52.772;-3.890;2023-02-24T16:03:59;12.20;99.90
25436;DHT22;13363;52.772;-3.890;2023-02-24T16:06:26;12.20;99.90
25436;DHT22;13363;52.772;-3.890;2023-02-24T16:08:54;12.20;99.90
25436;DHT22;13363;52.772;-3.890;2023-02-24T16:11:24;12.10;99.90
25436;DHT22;13363;52.772;-3.890;2023-02-24T16:13:56;12.20;99.90
25436;DHT22;13363;52.772;-3.890;2023-02-24T16:16:23;12.20;99.90
25436;DHT22;13363;52.772;-3.890;2023-02-24T16:18:50;12.30;99.90
25436;DHT22;13363;52.772;-3.890;2023-02-24T16:21:16;12.30;99.90
25436;DHT22;13363;52.772;-3.890;2023-02-24T16:23:42;12.40;99.90
25436;DHT22;13363;52.772;-3.890;2023-02-24T16:26:17;12.50;99.90
25436;DHT22;13363;52.772;-3.890;2023-02-24T16:28:51;12.50;99.90
25436;DHT22;13363;52.772;-3.890;2023-02-24T16:31:26;12.40;99.90
25436;DHT22;13363;52.772;-3.890;2023-02-24T16:33:53;12.20;99.90
25436;DHT22;13363;52.772;-3.890;2023-02-24T16:36:23;12.10;99.90
25436;DHT22;13363;52.772;-3.890;2023-02-24T16:38:49;12.00;99.90
25436;DHT22;13363;52.772;-3.890;2023-02-24T16:41:16;11.90;99.90
25436;DHT22;13363;52.772;-3.890;2023-02-24T16:43:42;11.80;99.90
25436;DHT22;13363;52.772;-3.890;2023-02-24T16:46:14;11.70;99.90
25436;DHT22;13363;52.772;-3.890;2023-02-24T16:48:44;11.60;99.90
25436;DHT22;13363;52.772;-3.890;2023-02-24T16:51:10;11.40;99.90
25436;DHT22;13363;52.772;-3.890;2023-02-24T16:53:37;11.40;99.90
25436;DHT22;13363;52.772;-3.890;2023-02-24T16:56:03;11.30;99.90
25436;DHT22;13363;52.772;-3.890;2023-02-24T16:58:30;11.20;99.90
25436;DHT22;13363;52.772;-3.890;2023-02-24T17:00:58;11.10;99.90
25436;DHT22;13363;52.772;-3.890;2023-02-24T17:03:46;11.20;99.90
25436;DHT22;13363;52.772;-3.890;2023-02-24T17:06:13;11.10;99.90
25436;DHT22;13363;52.772;-3.890;2023-02-24T17:08:39;11.00;99.90
25436;DHT22;13363;52.772;-3.890;2023-02-24T17:11:13;10.80;99.90
25436;DHT22;13363;52.772;-3.890;2023-02-24T17:13:40;10.70;99.90
25436;DHT22;13363;52.772;-3.890;2023-02-24T17:16:06;10.70;99.90
25436;DHT22;13363;52.772;-3.890;2023-02-24T17:18:32;10.60;99.90
25436;DHT22;13363;52.772;-3.890;2023-02-24T17:20:58;10.50;99.90
25436;DHT22;13363;52.772;-3.890;2023-02-24T17:23:24;10.40;99.90
25436;DHT22;13363;52.772;-3.890;2023-02-24T17:25:52;10.30;99.90
25436;DHT22;13363;52.772;-3.890;2023-02-24T17:28:19;10.40;99.90
25436;DHT22;13363;52.772;-3.890;2023-02-24T17:30:44;10.20;99.90
25436;DHT22;13363;52.772;-3.890;2023-02-24T17:33:10;10.20;99.90
25436;DHT22;13363;52.772;-3.890;2023-02-24T17:35:39;10.00;99.90
25436;DHT22;13363;52.772;-3.890;2023-02-24T17:38:11;9.90;99.90
25436;DHT22;13363;52.772;-3.890;2023-02-24T17:40:38;9.80;99.90
25436;DHT22;13363;52.772;-3.890;2023-02-24T17:43:04;9.70;99.90
25436;DHT22;13363;52.772;-3.890;2023-02-24T17:45:30;9.60;99.90
25436;DHT22;13363;52.772;-3.890;2023-02-24T17:47:56;9.60;99.90
25436;DHT22;13363;52.772;-3.890;2023-02-24T17:50:22;9.50;99.90
25436;DHT22;13363;52.772;-3.890;2023-02-24T17:52:47;9.50;99.90
25436;DHT22;13363;52.772;-3.890;2023-02-24T17:55:13;9.60;99.90
25436;DHT22;13363;52.772;-3.890;2023-02-24T17:57:39;9.60;99.90